Time;durP1;ratioP1;P1;durP2;ratioP2;P2;SDS_P1;SDS_P2;PMS_P1;PMS_P2;Temp;Humidity;BMP_temperature;BMP_pressure;BME280_temperature;BME280_humidity;BME280_pressure;Samples;Min_cycle;Max_cycle;Signal;HPM_P1;HPM_P2
2020/12/31 00:00:50;;;;;;;;;67.00;52.80;;;;;12.18;50.27;97875.50;6159621;28;127707;-62
2020/12/31 00:03:52;;;;;;;;;73.60;58.00;;;;;12.33;50.32;97902.69;6144171;28;128033;-62
2020/12/31 00:06:53;;;;;;;;;72.00;54.00;;;;;12.33;50.12;97899.16;6130521;28;124264;-62
2020/12/31 00:09:55;;;;;;;;;74.50;59.50;;;;;12.35;50.37;97897.84;6142538;28;126658;-62
2020/12/31 00:12:58;;;;;;;;;72.00;57.00;;;;;12.34;50.18;97912.41;6150001;28;125281;-62
2020/12/31 00:15:59;;;;;;;;;74.75;57.75;;;;;12.29;50.40;97900.75;6143733;28;128019;-62
2020/12/31 00:19:01;;;;;;;;;72.00;56.00;;;;;12.27;50.36;97909.09;6160018;28;126992;-62
2020/12/31 00:22:04;;;;;;;;;72.25;55.00;;;;;12.31;50.11;97915.66;6159512;28;126849;-62
2020/12/31 00:25:08;;;;;;;;;71.60;58.40;;;;;11.89;50.31;97847.13;6158974;28;128335;-62
2020/12/31 00:28:09;;;;;;;;;72.60;58.40;;;;;12.36;50.14;97912.19;6143496;28;126469;-62
2020/12/31 00:31:11;;;;;;;;;74.00;57.50;;;;;12.37;49.93;97925.41;6159520;28;127381;-62
2020/12/31 00:34:13;;;;;;;;;73.00;58.60;;;;;12.35;49.83;97924.06;6153128;28;126437;-62
2020/12/31 00:37:14;;;;;;;;;72.40;59.00;;;;;12.28;50.05;97924.25;6159285;28;127447;-62
2020/12/31 00:40:15;;;;;;;;;74.00;57.80;;;;;12.32;50.06;97924.53;6159046;28;125239;-62
2020/12/31 00:43:17;;;;;;;;;73.60;57.20;;;;;12.27;50.33;97929.91;6157993;28;126185;-62
2020/12/31 00:46:18;;;;;;;;;71.00;55.20;;;;;12.21;50.37;97922.84;6157192;28;127656;-62
2020/12/31 00:49:20;;;;;;;;;70.80;52.60;;;;;12.13;50.10;97906.00;6159710;28;126769;-62
2020/12/31 00:52:21;;;;;;;;;75.00;57.00;;;;;12.27;49.94;97929.91;6155471;28;127563;-62
2020/12/31 00:55:23;;;;;;;;;71.60;57.00;;;;;12.29;49.80;97928.59;6125362;28;127575;-62
2020/12/31 00:58:27;;;;;;;;;73.80;57.80;;;;;12.31;50.01;97925.63;6154085;28;126957;-62
2020/12/31 01:01:29;;;;;;;;;73.00;59.00;;;;;12.27;50.07;97938.00;6153038;28;124899;-62
2020/12/31 01:04:31;;;;;;;;;73.00;57.00;;;;;12.11;49.99;97912.75;6147189;28;126824;-62
2020/12/31 01:07:32;;;;;;;;;74.60;54.40;;;;;12.28;50.12;97937.75;6149295;28;127271;-62
2020/12/31 01:10:34;;;;;;;;;75.75;60.50;;;;;12.30;50.06;97942.91;6145334;28;127602;-62
2020/12/31 01:13:35;;;;;;;;;75.40;59.00;;;;;12.22;49.96;97938.78;6145662;28;124463;-62
2020/12/31 01:16:37;;;;;;;;;73.00;59.50;;;;;12.11;50.18;97929.78;6152599;28;125402;-62
2020/12/31 01:19:38;;;;;;;;;72.80;55.20;;;;;12.12;50.23;97934.09;6158114;28;126728;-62
2020/12/31 01:22:40;;;;;;;;;73.80;57.60;;;;;11.91;50.03;97901.72;6157891;28;126323;-62
2020/12/31 01:25:41;;;;;;;;;73.00;57.40;;;;;12.07;50.14;97930.53;6158202;28;126600;-62
2020/12/31 01:28:43;;;;;;;;;73.60;57.00;;;;;12.06;50.13;97928.91;6158629;28;127677;-61
2020/12/31 01:31:48;;;;;;;;;72.60;56.60;;;;;11.97;50.04;97920.41;6158498;28;127548;-61
2020/12/31 01:34:49;;;;;;;;;74.25;57.25;;;;;12.10;50.05;97944.34;6140648;28;125083;-62
2020/12/31 01:37:51;;;;;;;;;72.00;55.80;;;;;12.05;49.78;97947.00;6142017;28;126147;-62
2020/12/31 01:40:52;;;;;;;;;72.00;55.20;;;;;11.67;50.11;97912.78;6148878;28;127861;-62
2020/12/31 01:44:11;;;;;;;;;69.60;53.20;;;;;11.79;49.84;97933.44;6158631;28;127647;-61
2020/12/31 01:47:13;;;;;;;;;72.00;58.00;;;;;11.79;49.87;97928.88;6157935;28;124702;-62
2020/12/31 01:50:14;;;;;;;;;71.80;54.20;;;;;11.90;49.94;97944.13;6155370;28;125612;-62
2020/12/31 01:53:16;;;;;;;;;76.60;55.80;;;;;11.79;50.02;97947.75;6158200;28;126605;-62
2020/12/31 01:56:21;;;;;;;;;73.00;57.00;;;;;11.88;50.21;97957.03;6158721;28;128575;-62
2020/12/31 01:59:24;;;;;;;;;73.20;57.00;;;;;11.70;50.18;97941.97;6158853;28;126537;-62
2020/12/31 02:02:25;;;;;;;;;74.75;58.75;;;;;11.55;50.36;97924.75;6158472;28;127377;-62
2020/12/31 02:05:27;;;;;;;;;73.00;53.40;;;;;11.82;50.29;97978.88;6145248;28;127486;-64
2020/12/31 02:08:29;;;;;;;;;74.00;58.00;;;;;11.73;50.42;97972.28;6147397;28;128636;-62
2020/12/31 02:11:31;;;;;;;;;74.00;57.00;;;;;11.73;50.33;97974.97;6142408;28;126528;-62
2020/12/31 02:14:32;;;;;;;;;71.00;55.00;;;;;11.73;50.15;97969.56;6157829;28;125080;-62
2020/12/31 02:17:34;;;;;;;;;69.40;53.00;;;;;11.54;50.06;97950.94;6157913;28;127378;-62
2020/12/31 02:20:36;;;;;;;;;72.00;55.00;;;;;11.69;50.32;97978.13;6157376;28;127055;-62
2020/12/31 02:23:38;;;;;;;;;74.60;56.60;;;;;11.65;50.13;97993.19;6158573;28;125901;-62
2020/12/31 02:26:42;;;;;;;;;71.50;52.00;;;;;11.66;50.22;97986.75;6152046;28;126130;-62
2020/12/31 02:29:44;;;;;;;;;68.25;52.25;;;;;11.65;50.23;97984.28;6159211;28;125794;-62
2020/12/31 02:32:46;;;;;;;;;73.25;53.50;;;;;11.66;50.18;97985.91;6161682;28;125886;-62
2020/12/31 02:35:47;;;;;;;;;67.00;51.50;;;;;11.65;50.27;97979.69;6156233;28;127092;-62
2020/12/31 02:38:49;;;;;;;;;72.00;52.00;;;;;11.41;50.33;97963.97;6140388;28;126641;-62
2020/12/31 02:41:51;;;;;;;;;66.00;51.00;;;;;11.34;50.27;97937.16;6160181;28;125933;-62
2020/12/31 02:44:53;;;;;;;;;72.00;53.50;;;;;11.56;50.20;97961.50;6161305;28;126539;-62
2020/12/31 02:47:54;;;;;;;;;69.20;52.00;;;;;11.63;50.36;97973.72;6160956;28;127142;-62
2020/12/31 02:50:56;;;;;;;;;72.75;54.75;;;;;11.64;50.15;97988.84;6162385;28;97487;-61
2020/12/31 02:53:58;;;;;;;;;71.00;54.50;;;;;11.45;50.18;97962.41;6162002;28;126423;-62
2020/12/31 02:56:59;;;;;;;;;68.20;52.20;;;;;11.66;50.08;97991.31;6133661;28;126526;-62
2020/12/31 03:00:01;;;;;;;;;71.00;55.80;;;;;11.70;49.84;97982.47;6161083;28;128374;-62
2020/12/31 03:03:02;;;;;;;;;72.40;54.80;;;;;11.75;50.18;97989.03;6151659;28;126506;-62
2020/12/31 03:06:04;;;;;;;;;72.50;55.00;;;;;11.76;49.90;97983.38;6160911;28;127017;-61
2020/12/31 03:09:06;;;;;;;;;71.80;54.80;;;;;11.80;49.80;97984.50;6161407;28;126537;-62
2020/12/31 03:12:07;;;;;;;;;72.67;54.33;;;;;11.80;50.07;97986.38;6161282;28;127012;-62
2020/12/31 03:15:12;;;;;;;;;71.20;53.60;;;;;11.80;49.81;97981.00;6161348;28;124315;-61
2020/12/31 03:18:14;;;;;;;;;69.00;51.00;;;;;11.51;49.70;97918.25;6151424;28;126138;-62
2020/12/31 03:21:15;;;;;;;;;72.00;54.00;;;;;11.83;49.63;97965.09;6152295;28;126735;-61
2020/12/31 03:24:17;;;;;;;;;69.00;51.40;;;;;11.77;49.30;97955.31;6130930;28;125935;-61
2020/12/31 03:27:18;;;;;;;;;72.60;53.00;;;;;11.80;49.22;97960.19;6144896;28;127276;-62
2020/12/31 03:30:19;;;;;;;;;68.50;50.75;;;;;11.78;49.25;97977.75;6157295;28;127098;-61
2020/12/31 03:33:21;;;;;;;;;70.00;52.60;;;;;11.75;49.05;97975.53;6160146;28;125446;-63
2020/12/31 03:36:22;;;;;;;;;65.00;49.00;;;;;11.74;49.34;97982.81;6149788;28;125428;-62
2020/12/31 03:39:24;;;;;;;;;67.20;51.00;;;;;11.73;49.46;97969.56;6123388;28;124183;-61
2020/12/31 03:42:25;;;;;;;;;68.00;51.00;;;;;11.53;49.09;97935.00;6159851;28;126952;-61
2020/12/31 03:45:26;;;;;;;;;65.60;50.00;;;;;11.75;49.21;97973.63;6157058;28;126384;-62
2020/12/31 03:48:28;;;;;;;;;68.00;50.60;;;;;11.73;49.20;97983.06;6147263;28;126572;-61
2020/12/31 03:51:29;;;;;;;;;66.00;48.75;;;;;11.75;49.42;97991.72;6144751;28;128592;-62
2020/12/31 03:54:31;;;;;;;;;65.80;49.60;;;;;11.55;49.28;97955.28;6160469;28;125257;-62
2020/12/31 03:57:32;;;;;;;;;63.80;48.00;;;;;11.74;49.29;97982.81;6154555;28;126548;-62
2020/12/31 04:00:33;;;;;;;;;65.20;48.60;;;;;11.75;49.13;97980.91;6159910;28;124553;-62
2020/12/31 04:03:35;;;;;;;;;64.00;47.00;;;;;11.73;49.26;97987.38;6160695;28;127411;-62
2020/12/31 04:06:36;;;;;;;;;63.50;48.00;;;;;11.71;49.09;97996.78;6159816;28;127309;-62
2020/12/31 04:09:37;;;;;;;;;66.25;48.50;;;;;11.69;49.15;97996.22;6155893;28;125256;-62
2020/12/31 04:12:39;;;;;;;;;62.25;48.00;;;;;11.61;49.36;97991.25;6148432;28;125782;-62
2020/12/31 04:15:40;;;;;;;;;62.40;47.60;;;;;11.58;49.60;98003.34;6160663;28;125181;-62
2020/12/31 04:18:42;;;;;;;;;64.00;49.00;;;;;11.29;49.86;97978.38;6160129;28;127290;-62
2020/12/31 04:21:43;;;;;;;;;62.60;48.60;;;;;11.55;49.88;98000.34;6156334;28;127638;-62
2020/12/31 04:24:45;;;;;;;;;66.80;47.00;;;;;11.49;49.70;97985.94;6137095;28;125202;-62
2020/12/31 04:27:46;;;;;;;;;62.00;46.00;;;;;11.51;49.99;97999.22;6160653;28;125899;-62
2020/12/31 04:30:48;;;;;;;;;61.00;47.00;;;;;11.50;49.81;97994.88;6147641;28;126991;-62
2020/12/31 04:33:50;;;;;;;;;64.20;45.00;;;;;11.53;49.65;97997.88;6159846;28;125108;-61
2020/12/31 04:36:52;;;;;;;;;64.00;48.25;;;;;11.13;49.82;97941.50;6160244;28;126442;-61
2020/12/31 04:39:53;;;;;;;;;59.00;46.00;;;;;11.38;49.91;97986.09;6153404;28;126375;-61
2020/12/31 04:42:54;;;;;;;;;58.20;42.20;;;;;11.42;49.81;97998.84;6157236;28;125260;-61
2020/12/31 04:46:00;;;;;;;;;58.00;43.00;;;;;11.42;49.94;98001.53;6159492;28;126466;-61
2020/12/31 04:49:08;;;;;;;;;55.00;41.80;;;;;11.39;49.77;97990.38;6159716;28;127722;-61
2020/12/31 04:52:11;;;;;;;;;59.20;42.60;;;;;11.34;49.97;98001.94;6144345;28;127156;-61
2020/12/31 04:55:13;;;;;;;;;60.25;44.50;;;;;11.10;49.89;97979.72;6149003;28;127138;-61
2020/12/31 04:58:15;;;;;;;;;56.00;43.00;;;;;11.29;49.82;98005.38;6159728;28;126306;-61
2020/12/31 05:01:17;;;;;;;;;56.00;43.75;;;;;11.14;49.98;97977.38;6144810;28;124303;-61
2020/12/31 05:04:22;;;;;;;;;56.40;43.80;;;;;11.13;49.57;97981.94;6159560;28;127123;-61
2020/12/31 05:07:24;;;;;;;;;57.25;44.00;;;;;11.24;49.85;97999.91;6159430;28;124860;-62
2020/12/31 05:10:26;;;;;;;;;52.00;39.00;;;;;11.23;49.61;97998.28;6149601;28;127129;-62
2020/12/31 05:13:27;;;;;;;;;51.60;40.00;;;;;10.81;49.65;97956.63;6159465;28;128440;-62
2020/12/31 05:16:29;;;;;;;;;53.00;41.00;;;;;10.88;49.95;98003.13;6159316;28;125705;-61
2020/12/31 05:19:34;;;;;;;;;48.40;36.00;;;;;10.76;50.00;98008.59;6156503;28;125420;-61
2020/12/31 05:22:35;;;;;;;;;54.00;39.75;;;;;10.76;50.20;98016.69;6145722;28;126545;-62
2020/12/31 05:25:37;;;;;;;;;53.40;40.00;;;;;10.72;50.29;98020.91;6159736;28;126439;-61
2020/12/31 05:28:41;;;;;;;;;52.20;39.20;;;;;10.73;50.52;98021.75;6157833;28;126711;-61
2020/12/31 05:32:01;;;;;;;;;57.50;43.00;;;;;10.73;50.55;98019.88;6125121;28;127173;-62
2020/12/31 05:35:16;;;;;;;;;50.25;39.75;;;;;10.75;50.60;98030.41;6154674;28;129203;-61
2020/12/31 05:38:21;;;;;;;;;47.80;37.00;;;;;10.74;50.58;98035.00;6144626;28;127075;-61
2020/12/31 05:41:36;;;;;;;;;46.75;35.00;;;;;10.68;50.32;98032.44;6159156;28;127063;-61
2020/12/31 05:44:57;;;;;;;;;44.00;35.00;;;;;10.62;50.74;98042.31;6158225;28;126032;-61
2020/12/31 05:47:59;;;;;;;;;46.20;35.00;;;;;10.21;50.83;97988.75;6157444;28;124984;-63
2020/12/31 05:51:20;;;;;;;;;43.00;33.00;;;;;10.64;50.86;98044.78;6149218;28;127376;-61
2020/12/31 05:54:27;;;;;;;;;44.00;34.00;;;;;10.28;50.87;97997.47;6144523;28;125362;-61
2020/12/31 05:57:52;;;;;;;;;44.20;32.00;;;;;10.62;51.00;98038.78;6147562;28;124693;-61
2020/12/31 06:01:02;;;;;;;;;43.50;35.00;;;;;10.62;51.12;98034.22;6157639;28;126539;-61
2020/12/31 06:04:19;;;;;;;;;38.20;32.00;;;;;10.57;51.18;98036.81;6150118;28;127753;-62
2020/12/31 06:07:33;;;;;;;;;38.00;32.00;;;;;10.60;51.24;98030.97;6152919;28;126031;-61
2020/12/31 06:10:49;;;;;;;;;41.40;31.40;;;;;10.58;51.00;98033.06;6166729;28;127054;-62
2020/12/31 06:13:56;;;;;;;;;41.60;33.00;;;;;10.57;51.03;98036.00;6142738;28;124792;-61
2020/12/31 06:17:00;;;;;;;;;44.00;34.60;;;;;10.20;51.25;97987.09;6158845;28;127748;-61
2020/12/31 06:20:11;;;;;;;;;45.40;33.40;;;;;10.52;51.36;98044.00;6164961;28;127519;-61
2020/12/31 06:23:35;;;;;;;;;43.80;32.40;;;;;10.56;51.09;98045.97;6141944;28;126434;-61
2020/12/31 06:26:41;;;;;;;;;39.00;30.20;;;;;10.61;51.21;98042.53;6145175;28;127086;-61
2020/12/31 06:29:50;;;;;;;;;37.80;30.60;;;;;10.59;51.14;98041.97;6158179;28;127124;-62
2020/12/31 06:32:52;;;;;;;;;36.33;30.67;;;;;10.62;51.08;98041.47;6149944;28;126555;-61
2020/12/31 06:36:03;;;;;;;;;44.20;34.80;;;;;10.35;50.83;97995.47;6158232;28;126315;-62
2020/12/31 06:39:06;;;;;;;;;39.00;32.00;;;;;10.70;50.89;98038.41;6157771;28;126165;-62
2020/12/31 06:42:08;;;;;;;;;37.80;32.40;;;;;10.70;50.75;98039.22;6158188;28;124878;-62
2020/12/31 06:45:44;;;;;;;;;40.00;33.00;;;;;10.72;50.95;98044.38;6128104;28;125706;-62
2020/12/31 06:48:54;;;;;;;;;41.20;32.00;;;;;10.76;50.71;98043.63;6158492;28;124993;-61
2020/12/31 06:52:22;;;;;;;;;37.00;31.00;;;;;10.62;50.80;98011.84;6157919;28;126942;-61
2020/12/31 06:55:26;;;;;;;;;42.40;32.00;;;;;10.83;50.46;98038.09;6157773;28;124633;-62
2020/12/31 06:58:29;;;;;;;;;41.60;33.20;;;;;10.85;50.29;98044.88;6142346;28;126002;-63
2020/12/31 07:01:30;;;;;;;;;38.50;31.00;;;;;10.86;50.35;98051.06;6143336;28;125392;-61
2020/12/31 07:04:34;;;;;;;;;45.50;35.00;;;;;10.85;50.61;98047.56;6157362;28;126506;-61
2020/12/31 07:07:45;;;;;;;;;41.00;32.00;;;;;10.85;50.53;98047.56;6156424;28;126550;-61
2020/12/31 07:10:46;;;;;;;;;41.00;32.40;;;;;10.89;50.44;98053.31;6150616;28;127122;-61
2020/12/31 07:13:48;;;;;;;;;36.60;29.60;;;;;10.90;50.13;98059.53;6155373;28;125156;-62
2020/12/31 07:17:11;;;;;;;;;35.50;28.75;;;;;10.78;50.07;98063.09;6143561;28;125206;-62
2020/12/31 07:20:15;;;;;;;;;30.00;28.40;;;;;10.53;50.27;98067.19;6148045;28;125294;-61
2020/12/31 07:23:16;;;;;;;;;35.60;29.80;;;;;10.65;50.77;98079.53;6149381;28;126698;-62
2020/12/31 07:26:18;;;;;;;;;34.20;27.60;;;;;10.64;50.24;98077.13;6145251;28;125492;-62
2020/12/31 07:29:30;;;;;;;;;35.80;30.00;;;;;10.35;50.54;98050.19;6161193;28;126396;-62
2020/12/31 07:32:54;;;;;;;;;34.80;29.80;;;;;10.68;50.81;98079.09;6159851;28;125938;-62
2020/12/31 07:35:56;;;;;;;;;41.50;33.50;;;;;10.68;50.39;98079.09;6161324;28;126436;-62
2020/12/31 07:38:57;;;;;;;;;33.50;28.50;;;;;10.56;50.59;98074.78;6152367;28;127801;-62
2020/12/31 07:42:28;;;;;;;;;37.50;27.75;;;;;10.49;50.53;98057.97;6153039;28;129126;-61
2020/12/31 07:45:31;;;;;;;;;36.00;30.25;;;;;10.54;50.67;98072.34;6142266;28;124249;-62
2020/12/31 07:48:32;;;;;;;;;30.00;25.60;;;;;10.59;50.92;98077.03;6160079;28;124787;-62
2020/12/31 07:51:36;;;;;;;;;36.75;26.75;;;;;10.64;50.80;98080.63;6160871;28;127361;-62
2020/12/31 07:54:37;;;;;;;;;37.50;32.00;;;;;10.69;50.52;98080.72;6160445;28;125567;-62
2020/12/31 07:57:40;;;;;;;;;35.50;29.00;;;;;10.74;50.45;98075.44;6146255;28;126267;-62
2020/12/31 08:00:42;;;;;;;;;34.00;28.50;;;;;10.82;50.47;98083.09;6159767;28;124064;-62
2020/12/31 08:03:43;;;;;;;;;35.20;30.40;;;;;10.88;50.10;98086.72;6153845;28;124569;-61
2020/12/31 08:06:45;;;;;;;;;37.00;29.00;;;;;10.96;50.04;98078.22;6152682;28;125586;-61
2020/12/31 08:09:49;;;;;;;;;35.00;29.00;;;;;11.06;50.06;98080.28;6158725;28;127252;-61
2020/12/31 08:12:58;;;;;;;;;29.00;24.00;;;;;11.08;49.63;98089.78;6158559;28;127929;-61
2020/12/31 08:15:59;;;;;;;;;32.60;25.00;;;;;11.15;49.01;98092.28;6158147;28;127739;-62
2020/12/31 08:19:01;;;;;;;;;35.50;27.75;;;;;11.16;48.53;98093.94;6159127;28;125259;-62
2020/12/31 08:22:39;;;;;;;;;33.00;28.00;;;;;11.18;48.94;98095.34;6158976;28;126259;-62
2020/12/31 08:25:43;;;;;;;;;38.60;31.60;;;;;10.88;48.67;98053.53;6159238;28;127266;-62
2020/12/31 08:28:44;;;;;;;;;30.50;26.00;;;;;11.13;48.27;98106.03;6158776;28;127086;-61
2020/12/31 08:31:52;;;;;;;;;29.00;24.00;;;;;11.09;48.44;98107.56;6159249;28;126400;-63
2020/12/31 08:34:56;;;;;;;;;28.40;22.60;;;;;10.86;48.25;98068.06;6158772;28;126029;-62
2020/12/31 08:38:19;;;;;;;;;38.60;27.80;;;;;11.18;48.18;98105.31;6157091;28;126816;-61
2020/12/31 08:41:21;;;;;;;;;30.25;27.00;;;;;11.08;48.41;98094.34;6158153;28;126463;-61
2020/12/31 08:44:24;;;;;;;;;28.60;25.60;;;;;11.29;48.40;98129.50;6158609;28;126560;-62
2020/12/31 08:47:26;;;;;;;;;33.60;29.60;;;;;11.36;48.19;98118.56;6159592;28;127239;-61
2020/12/31 08:50:27;;;;;;;;;28.20;25.80;;;;;11.43;48.10;98129.19;6158766;28;127446;-61
2020/12/31 08:53:29;;;;;;;;;33.00;28.00;;;;;11.07;48.22;98066.53;6157938;28;125653;-62
2020/12/31 08:56:32;;;;;;;;;27.80;24.00;;;;;11.40;48.36;98090.00;6158101;28;126666;-62
2020/12/31 08:59:35;;;;;;;;;36.20;31.20;;;;;11.71;48.12;98115.59;6157188;28;124930;-62
2020/12/31 09:02:36;;;;;;;;;33.00;29.50;;;;;11.78;47.71;98118.94;6147779;28;126284;-62
2020/12/31 09:05:37;;;;;;;;;32.00;27.00;;;;;11.92;47.74;98124.84;6158108;28;126345;-61
2020/12/31 09:08:46;;;;;;;;;29.00;24.40;;;;;11.84;47.15;98103.63;6145953;28;125531;-62
2020/12/31 09:11:53;;;;;;;;;32.80;29.00;;;;;11.99;46.77;98122.75;6144550;28;126724;-61
2020/12/31 09:14:56;;;;;;;;;29.00;26.20;;;;;12.07;46.77;98122.34;6159227;28;126856;-61
2020/12/31 09:17:59;;;;;;;;;36.50;30.00;;;;;12.11;46.30;98123.47;6158238;28;125851;-62
2020/12/31 09:21:01;;;;;;;;;31.00;28.00;;;;;12.13;47.01;98124.03;6157625;28;126291;-62
2020/12/31 09:24:16;;;;;;;;;32.00;29.00;;;;;12.01;46.19;98112.53;6149725;28;126425;-62
2020/12/31 09:27:26;;;;;;;;;30.20;27.20;;;;;11.94;46.02;98095.69;6150321;28;127022;-61
2020/12/31 09:30:30;;;;;;;;;37.00;30.60;;;;;12.07;46.11;98108.84;6144852;28;126185;-61
2020/12/31 09:33:33;;;;;;;;;32.25;28.25;;;;;11.76;45.84;98050.88;6158203;28;125618;-62
2020/12/31 09:36:35;;;;;;;;;28.75;26.00;;;;;12.17;45.23;98108.16;6158117;28;124877;-61
2020/12/31 09:39:36;;;;;;;;;30.80;26.40;;;;;12.26;45.58;98101.25;6122732;28;125243;-61
2020/12/31 09:42:37;;;;;;;;;35.40;30.00;;;;;12.36;45.60;98096.78;6158164;28;125928;-62
2020/12/31 09:45:39;;;;;;;;;35.60;30.00;;;;;12.44;44.67;98107.13;6157661;28;128058;-61
2020/12/31 09:48:40;;;;;;;;;27.20;23.60;;;;;12.50;44.93;98099.91;6157903;28;126659;-62
2020/12/31 09:51:41;;;;;;;;;32.00;25.40;;;;;12.53;45.02;98099.41;6157839;28;126771;-62
2020/12/31 09:54:43;;;;;;;;;36.20;30.20;;;;;12.56;45.03;98088.88;6157160;28;125631;-62
2020/12/31 09:57:44;;;;;;;;;35.60;30.60;;;;;12.33;44.96;98043.22;6147391;28;125348;-62
2020/12/31 10:00:46;;;;;;;;;35.80;30.60;;;;;12.71;44.56;98088.22;6138418;28;126061;-62
2020/12/31 10:03:47;;;;;;;;;30.80;27.80;;;;;12.64;44.49;98073.28;6157805;28;126105;-62
2020/12/31 10:06:49;;;;;;;;;34.00;30.00;;;;;12.81;44.71;98088.34;6157319;28;126174;-63
2020/12/31 10:09:50;;;;;;;;;33.20;29.80;;;;;12.83;44.49;98091.63;6142229;28;127911;-62
2020/12/31 10:12:52;;;;;;;;;34.60;30.00;;;;;12.82;44.32;98084.56;6150830;28;128629;-61
2020/12/31 10:15:53;;;;;;;;;35.40;30.40;;;;;12.85;44.00;98084.03;6154887;28;127105;-62
2020/12/31 10:18:55;;;;;;;;;30.00;27.00;;;;;12.89;43.83;98082.47;6155710;28;126516;-61
2020/12/31 10:21:56;;;;;;;;;33.80;27.80;;;;;12.90;43.30;98077.91;6154650;28;126768;-61
2020/12/31 10:24:58;;;;;;;;;30.00;27.00;;;;;12.77;43.30;98052.06;6156065;28;126909;-61
2020/12/31 10:27:59;;;;;;;;;36.00;28.50;;;;;13.07;42.95;98072.34;6152125;28;127695;-61
2020/12/31 10:31:01;;;;;;;;;31.00;28.60;;;;;13.12;42.95;98064.31;6155198;28;124732;-62
2020/12/31 10:34:02;;;;;;;;;28.80;26.80;;;;;13.06;42.61;98068.81;6152622;28;126861;-62
2020/12/31 10:37:03;;;;;;;;;29.00;26.60;;;;;13.27;42.45;98061.72;6155366;28;125437;-62
2020/12/31 10:40:05;;;;;;;;;32.00;28.00;;;;;13.31;42.21;98062.84;6155581;28;127407;-62
2020/12/31 10:43:06;;;;;;;;;31.00;29.00;;;;;13.27;42.08;98059.84;6156757;28;126946;-62
2020/12/31 10:46:07;;;;;;;;;33.00;30.00;;;;;13.19;42.11;98049.50;6114837;28;126459;-62
2020/12/31 10:49:09;;;;;;;;;36.00;31.40;;;;;13.19;42.24;98037.84;6146208;28;125086;-62
2020/12/31 10:52:10;;;;;;;;;35.00;30.00;;;;;13.28;41.81;98058.75;6159495;28;126728;-62
2020/12/31 10:55:12;;;;;;;;;30.60;25.60;;;;;13.34;41.46;98055.00;6159725;28;126948;-62
2020/12/31 10:58:13;;;;;;;;;32.00;27.50;;;;;13.39;41.43;98056.94;6159161;28;127446;-62
2020/12/31 11:01:15;;;;;;;;;34.25;28.75;;;;;13.35;41.35;98051.22;6158953;28;124433;-62
2020/12/31 11:04:16;;;;;;;;;39.00;33.00;;;;;13.33;41.82;98044.47;6159728;28;126900;-63
2020/12/31 11:07:17;;;;;;;;;39.00;30.60;;;;;13.30;41.75;98040.34;6159199;28;125720;-62
2020/12/31 11:10:19;;;;;;;;;32.80;30.00;;;;;13.24;41.91;98037.91;6169681;28;125473;-62
2020/12/31 11:13:20;;;;;;;;;39.00;32.00;;;;;13.07;41.98;98018.22;6159395;28;126790;-61
2020/12/31 11:16:21;;;;;;;;;39.60;34.00;;;;;13.08;42.02;98031.50;6160166;28;126439;-62
2020/12/31 11:19:24;;;;;;;;;37.00;30.80;;;;;12.83;42.21;98007.75;6158703;28;124860;-62
2020/12/31 11:22:25;;;;;;;;;36.00;31.40;;;;;12.89;42.38;98020.25;6158759;28;125122;-62
2020/12/31 11:25:27;;;;;;;;;33.00;30.00;;;;;12.91;42.31;98020.81;6159058;28;127894;-61
2020/12/31 11:28:28;;;;;;;;;34.50;29.50;;;;;12.93;42.22;98024.09;6157652;28;126598;-62
2020/12/31 11:31:30;;;;;;;;;32.00;30.00;;;;;12.89;42.19;98009.44;6158681;28;125637;-61
2020/12/31 11:34:32;;;;;;;;;37.00;31.00;;;;;12.80;42.23;97977.72;6156784;28;126276;-62
2020/12/31 11:37:35;;;;;;;;;34.00;29.20;;;;;13.12;41.80;98019.13;6160141;28;125857;-63
2020/12/31 11:40:37;;;;;;;;;34.00;27.25;;;;;13.22;41.35;97994.84;6159743;28;126189;-62
2020/12/31 11:43:38;;;;;;;;;29.80;26.60;;;;;13.50;41.29;98003.66;6159150;28;127735;-62
2020/12/31 11:46:40;;;;;;;;;31.80;28.80;;;;;13.71;40.79;98000.00;6158679;28;127892;-62
2020/12/31 11:49:41;;;;;;;;;38.00;32.00;;;;;13.94;40.43;98004.97;6153938;28;125218;-62
2020/12/31 11:52:43;;;;;;;;;33.60;29.60;;;;;14.19;39.79;97996.13;6136319;28;126454;-64
2020/12/31 11:55:46;;;;;;;;;36.20;31.00;;;;;14.03;38.82;97923.97;6159361;28;127833;-62
2020/12/31 11:58:47;;;;;;;;;35.60;29.00;;;;;14.68;38.50;97993.81;6158383;28;126088;-63
2020/12/31 12:01:51;;;;;;;;;34.60;29.00;;;;;14.56;38.14;97960.75;6149398;28;127160;-63
2020/12/31 12:04:53;;;;;;;;;33.00;29.25;;;;;14.83;38.21;97993.03;6158640;28;126040;-61
2020/12/31 12:07:54;;;;;;;;;31.20;28.20;;;;;15.05;37.63;97985.44;6158848;28;125493;-62
2020/12/31 12:10:56;;;;;;;;;32.50;29.50;;;;;15.40;37.06;97995.44;6163089;28;125617;-63
2020/12/31 12:13:58;;;;;;;;;34.40;31.20;;;;;15.76;36.75;97993.47;6157713;28;125754;-62
2020/12/31 12:17:01;;;;;;;;;28.40;28.00;;;;;16.02;35.94;97989.59;6159448;28;127746;-62
2020/12/31 12:20:04;;;;;;;;;31.50;28.00;;;;;16.11;35.53;97984.38;6152720;28;125707;-64
2020/12/31 12:23:05;;;;;;;;;35.00;30.00;;;;;16.15;35.46;97985.44;6158712;28;127456;-61
2020/12/31 12:26:07;;;;;;;;;32.00;29.80;;;;;15.91;35.22;97988.81;6159572;28;128453;-61
2020/12/31 12:29:08;;;;;;;;;36.60;30.00;;;;;15.85;35.77;97980.94;6159718;28;127470;-62
2020/12/31 12:32:11;;;;;;;;;32.25;26.25;;;;;15.97;35.89;97979.56;6146031;28;125040;-62
2020/12/31 12:35:13;;;;;;;;;35.00;28.50;;;;;16.00;35.46;97953.69;6148533;28;125054;-62
2020/12/31 12:38:14;;;;;;;;;35.00;31.00;;;;;16.12;35.20;97970.50;6159741;28;126186;-62
2020/12/31 12:41:15;;;;;;;;;37.50;30.00;;;;;16.06;35.46;97977.06;6158768;28;125239;-62
2020/12/31 12:44:17;;;;;;;;;32.00;29.25;;;;;15.99;35.38;97961.03;6148399;28;125396;-62
2020/12/31 12:47:18;;;;;;;;;30.80;27.00;;;;;15.93;35.59;97964.88;6153384;28;127517;-61
2020/12/31 12:50:19;;;;;;;;;34.50;30.00;;;;;15.79;35.75;97965.75;6158908;28;125368;-62
2020/12/31 12:53:21;;;;;;;;;29.50;26.75;;;;;15.68;36.05;97970.44;6159150;28;125471;-62
2020/12/31 12:56:22;;;;;;;;;27.20;26.00;;;;;15.54;36.03;97958.50;6159301;28;127526;-62
2020/12/31 12:59:24;;;;;;;;;31.60;28.60;;;;;15.27;36.65;97966.13;6159220;28;127913;-62
2020/12/31 13:02:26;;;;;;;;;33.40;30.00;;;;;15.13;36.85;97969.41;6156896;28;127241;-62
2020/12/31 13:05:27;;;;;;;;;28.00;27.00;;;;;15.00;36.79;97966.44;6135588;28;125680;-61
2020/12/31 13:08:29;;;;;;;;;48.00;37.60;;;;;14.84;36.96;97967.53;6158374;28;126301;-62
2020/12/31 13:11:30;;;;;;;;;34.50;29.50;;;;;14.71;37.22;97969.69;6147446;28;125992;-62
2020/12/31 13:14:39;;;;;;;;;37.00;30.40;;;;;14.64;37.67;97971.84;6153150;28;124669;-62
2020/12/31 13:17:41;;;;;;;;;36.80;30.00;;;;;14.55;37.76;97976.19;6157185;28;124949;-62
2020/12/31 13:20:42;;;;;;;;;31.60;28.00;;;;;14.51;37.88;97974.28;6157519;28;125373;-63
2020/12/31 13:23:43;;;;;;;;;31.00;30.00;;;;;14.46;38.10;97972.38;6157830;28;126681;-61
2020/12/31 13:26:45;;;;;;;;;33.20;28.60;;;;;14.40;38.11;97973.47;6156504;28;127561;-62
2020/12/31 13:29:47;;;;;;;;;37.00;32.00;;;;;14.46;38.34;97972.38;6148416;28;125257;-62
2020/12/31 13:32:48;;;;;;;;;35.20;29.00;;;;;14.45;38.46;97970.75;6147690;28;126128;-62
2020/12/31 13:35:50;;;;;;;;;33.00;29.40;;;;;14.34;38.56;97966.34;6159743;28;126794;-63
2020/12/31 13:38:51;;;;;;;;;31.25;29.25;;;;;14.20;38.39;97971.47;6131471;28;129894;-62
2020/12/31 13:41:53;;;;;;;;;33.00;30.00;;;;;13.94;38.85;97968.94;6141319;28;125362;-63
2020/12/31 13:44:54;;;;;;;;;36.00;31.00;;;;;13.77;39.27;97972.69;6157887;28;125910;-62
2020/12/31 13:47:56;;;;;;;;;40.00;30.00;;;;;13.71;39.83;97971.03;6143928;28;127867;-63
2020/12/31 13:50:57;;;;;;;;;34.60;30.00;;;;;13.58;39.57;97970.69;6158338;28;126737;-63
2020/12/31 13:53:58;;;;;;;;;36.00;30.00;;;;;13.46;40.20;97970.88;6158205;28;125427;-61